Impacts TAF Board
For situational awareness. Not to be used for flight planning purposes.
IDs:

KMIA - Miami Intl, FL, US

Issued at 0257 UTC 18 Jun 2019
Updated at 0303 UTC 18 Jun 2019
Potential Impact None Slight Moderate High
Time0253Z 18/04Z 18/05Z 18/06Z 18/07Z 18/08Z 18/09Z 18/10Z 18/11Z 18/12Z 18/13Z 18/14Z 18/15Z 18/16Z>>
Type OBS PRVL PRVL PRVL PRVL PRVL PRVL PRVL PRVL PRVL PRVL PRVL PRVL PRVL
  [PRB30]  
VIS 10 >6 >6 >6 >6 >6 >6 >6 >6 >6 >6 >6 >6 >6
  [3]  
CIG 250 150 150 50 50 50 50 50 50 50 50 35 35 35
  [25]  
Cover BKN BKN BKN BKN BKN BKN BKN BKN BKN BKN BKN BKN BKN BKN
  [BKN]  
FltCat VFR VFR VFR VFR VFR VFR VFR VFR VFR VFR VFR VFR VFR VFR
  [MVFR]  
WX -- -- -- VCSH VCSH VCSH VCSH VCSH VCSH VCSH VCSH VCTS VCTS VCTS
  [TSRA]  
WDir 120 110 110 150 150 150 150 150 150 150 150 160 160 160
[160]
WSpd 10 9 9 6 6 6 6 6 6 6 6 10 10 10
  [10]  
WGst -- -- -- -- -- -- -- -- -- -- -- -- -- --
  [--]  
Raw TAF
KMIA 180257Z 1803/1906 11009KT P6SM FEW020 SCT080 BKN150
  FM180600 15006KT P6SM VCSH SCT020 BKN050 BKN100
  FM181400 16010KT P6SM VCTS SCT020CB BKN035 BKN060
  PROB30 1816/1821 3SM TSRA SCT015 BKN025CB BKN040
  FM182200 20007KT P6SM VCSH FEW020 SCT060 BKN200


Raw METAR
KMIA 180253Z 12010KT 10SM SCT015 BKN250 27/23 A3008 RMK AO2 SLP187 T02670233 53007
KMIA 180153Z 11009KT 10SM SCT013 SCT018 BKN060 BKN250 26/23 A3008 RMK AO2 SLP184 T02610233
KMIA 180053Z 11007KT 10SM FEW015 FEW025 SCT150 BKN250 26/23 A3007 RMK AO2 LTG DSNT SE SLP181 CB DSNT SE T02610228

METAR Board
Radar Display
Forecast Discussion
For situational awareness. Not to be used for flight planning purposes.